createdAt,value
2018-07-21T00:02:01.435Z,19.92
2018-07-21T00:04:33.242Z,19.88
2018-07-21T00:07:04.279Z,19.81
2018-07-21T00:09:35.290Z,19.77
2018-07-21T00:12:06.085Z,19.69
2018-07-21T00:14:36.914Z,19.63
2018-07-21T00:17:07.768Z,19.55
2018-07-21T00:19:38.452Z,19.53
2018-07-21T00:22:10.311Z,19.55
2018-07-21T00:24:41.932Z,19.68
2018-07-21T00:27:12.436Z,19.65
2018-07-21T00:29:43.258Z,19.62
2018-07-21T00:32:14.082Z,19.52
2018-07-21T00:34:44.768Z,19.44
2018-07-21T00:37:15.535Z,19.35
2018-07-21T00:39:46.446Z,19.28
2018-07-21T00:42:17.914Z,19.33
2018-07-21T00:44:48.632Z,19.40
2018-07-21T00:47:19.221Z,19.40
2018-07-21T00:49:49.376Z,19.44
2018-07-21T00:52:20.275Z,19.42
2018-07-21T00:54:51.142Z,19.30
2018-07-21T00:57:22.006Z,19.25
2018-07-21T00:59:53.447Z,19.26
2018-07-21T01:02:24.935Z,19.20
2018-07-21T01:04:56.246Z,19.23
2018-07-21T01:07:27.008Z,19.22
2018-07-21T01:09:57.656Z,19.29
2018-07-21T01:12:28.720Z,19.41
2018-07-21T01:14:59.326Z,19.36
2018-07-21T01:17:29.938Z,19.34
2018-07-21T01:20:01.397Z,19.26
2018-07-21T01:22:32.538Z,19.23
2018-07-21T01:25:03.034Z,19.20
2018-07-21T01:27:33.536Z,19.14
2018-07-21T01:30:04.572Z,19.10
2018-07-21T01:32:35.088Z,19.07
2018-07-21T01:35:05.981Z,19.03
2018-07-21T01:37:36.710Z,18.95
2018-07-21T01:40:08.813Z,18.94
2018-07-21T01:42:39.419Z,18.87
2018-07-21T01:45:10.801Z,18.83
2018-07-21T01:47:41.520Z,18.87
2018-07-21T01:50:12.017Z,18.88
2018-07-21T01:52:42.626Z,18.84
2018-07-21T01:55:13.285Z,18.70
2018-07-21T01:57:44.251Z,18.62
2018-07-21T02:00:15.735Z,18.55
2018-07-21T02:02:46.245Z,18.67
2018-07-21T02:05:17.016Z,18.74
2018-07-21T02:07:47.529Z,18.83
2018-07-21T02:10:17.991Z,18.96
2018-07-21T02:12:48.584Z,18.96
2018-07-21T02:15:19.107Z,18.98
2018-07-21T02:17:50.921Z,18.98
2018-07-21T02:20:21.761Z,18.97
2018-07-21T02:22:52.441Z,18.91
2018-07-21T02:25:23.027Z,19.12
2018-07-21T02:27:53.806Z,19.25
2018-07-21T02:30:24.296Z,19.49
2018-07-21T02:32:54.754Z,19.46
2018-07-21T02:35:25.520Z,19.39
2018-07-21T02:37:56.854Z,19.35
2018-07-21T02:40:27.567Z,19.38
2018-07-21T02:42:58.196Z,19.41
2018-07-21T02:45:28.721Z,19.47
2018-07-21T02:47:59.477Z,19.52
2018-07-21T02:50:30.155Z,19.63
2018-07-21T02:53:00.999Z,19.77
2018-07-21T02:55:31.656Z,19.81
2018-07-21T02:58:03.404Z,19.87
2018-07-21T03:00:34.094Z,19.93
2018-07-21T03:03:04.658Z,19.92
2018-07-21T03:05:35.031Z,19.72
2018-07-21T03:08:06.015Z,19.76
2018-07-21T03:10:36.135Z,19.95
2018-07-21T03:13:07.257Z,19.93
2018-07-21T03:15:38.249Z,19.62
2018-07-21T03:18:09.388Z,19.10
2018-07-21T03:20:39.934Z,18.73
2018-07-21T03:23:10.585Z,18.64
2018-07-21T03:25:41.815Z,18.78
2018-07-21T03:28:11.984Z,18.66
2018-07-21T03:30:42.540Z,18.54
2018-07-21T03:33:13.764Z,18.44
2018-07-21T03:35:45.625Z,18.33
2018-07-21T03:38:17.684Z,18.27
2018-07-21T03:40:48.135Z,18.38
2018-07-21T03:43:19.682Z,18.49
2018-07-21T03:45:50.259Z,18.48
2018-07-21T03:48:20.903Z,18.50
2018-07-21T03:50:51.465Z,18.54
2018-07-21T03:53:22.470Z,18.54
2018-07-21T03:55:53.943Z,18.56
2018-07-21T03:58:24.588Z,18.59
2018-07-21T04:00:55.153Z,18.58
2018-07-21T04:03:25.758Z,18.49
2018-07-21T04:05:56.236Z,18.41
2018-07-21T04:08:26.776Z,18.42
2018-07-21T04:10:56.893Z,18.45
2018-07-21T04:13:27.821Z,18.47
2018-07-21T04:15:59.186Z,18.50
2018-07-21T04:18:29.780Z,18.54
2018-07-21T04:21:00.324Z,18.55
2018-07-21T04:23:30.861Z,18.58
2018-07-21T04:26:01.600Z,18.65
2018-07-21T04:28:32.053Z,18.77
2018-07-21T04:31:02.664Z,18.94
2018-07-21T04:33:33.932Z,19.13
2018-07-21T04:36:04.975Z,19.28
2018-07-21T04:38:35.489Z,19.38
2018-07-21T04:41:05.910Z,19.46
2018-07-21T04:43:36.348Z,19.54
2018-07-21T04:46:07.029Z,19.62
2018-07-21T04:48:37.632Z,19.64
2018-07-21T04:51:08.947Z,19.72
2018-07-21T04:53:41.040Z,19.74
2018-07-21T04:56:12.004Z,19.77
2018-07-21T04:58:42.869Z,19.85
2018-07-21T05:01:13.328Z,19.92
2018-07-21T05:03:43.461Z,20.00
2018-07-21T05:06:14.237Z,20.11
2018-07-21T05:08:44.819Z,20.22
2018-07-21T05:11:15.963Z,20.25
2018-07-21T05:13:47.480Z,20.28
2018-07-21T05:16:18.539Z,20.41
2018-07-21T05:18:49.186Z,20.63
2018-07-21T05:21:19.812Z,20.84
2018-07-21T05:23:50.430Z,20.92
2018-07-21T05:26:21.182Z,21.05
2018-07-21T05:28:51.841Z,21.20
2018-07-21T05:31:23.038Z,21.30
2018-07-21T05:33:54.518Z,21.38
2018-07-21T05:36:25.205Z,21.30
2018-07-21T05:38:55.646Z,21.54
2018-07-21T05:41:25.693Z,21.75
2018-07-21T05:43:56.354Z,21.69
2018-07-21T05:46:27.079Z,21.63
2018-07-21T05:48:57.470Z,21.56
2018-07-21T05:51:29.996Z,21.67
2018-07-21T05:54:01.074Z,22.14
2018-07-21T05:56:31.851Z,22.24
2018-07-21T05:59:02.683Z,22.65
2018-07-21T06:01:33.403Z,22.86
2018-07-21T06:04:04.026Z,22.84
2018-07-21T06:06:35.208Z,23.00
2018-07-21T06:09:09.472Z,23.34
2018-07-21T06:11:42.076Z,23.24
2018-07-21T06:14:12.979Z,23.32
2018-07-21T06:16:43.637Z,22.96
2018-07-21T06:19:15.056Z,23.49
2018-07-21T06:21:46.324Z,23.75
2018-07-21T06:24:18.252Z,24.22
2018-07-21T06:26:50.133Z,24.36
2018-07-21T06:29:21.627Z,24.87
2018-07-21T06:31:52.561Z,24.22
2018-07-21T06:34:24.094Z,23.73
2018-07-21T06:36:55.516Z,23.99
2018-07-21T06:39:26.542Z,24.33
2018-07-21T06:41:57.089Z,24.58
2018-07-21T06:44:29.280Z,23.88
2018-07-21T06:47:01.544Z,23.13
2018-07-21T06:49:33.076Z,23.83
2018-07-21T06:52:04.368Z,24.49
2018-07-21T06:54:35.156Z,24.48
2018-07-21T06:57:05.953Z,25.58
2018-07-21T06:59:36.649Z,26.00
2018-07-21T07:02:09.850Z,26.91
2018-07-21T07:04:41.218Z,26.84
2018-07-21T07:07:12.536Z,25.35
2018-07-21T07:09:43.393Z,25.88
2018-07-21T07:12:14.357Z,26.17
2018-07-21T07:14:45.624Z,26.25
2018-07-21T07:17:16.823Z,27.12
2018-07-21T07:19:48.345Z,27.73
2018-07-21T07:22:19.341Z,27.68
2018-07-21T07:24:50.304Z,26.89
2018-07-21T07:27:21.302Z,26.83
2018-07-21T07:29:52.017Z,27.08
2018-07-21T07:32:22.809Z,28.37
2018-07-21T07:34:53.398Z,26.95
2018-07-21T07:37:24.267Z,26.20
2018-07-21T07:39:55.844Z,26.06
2018-07-21T07:42:26.753Z,25.75
2018-07-21T07:44:57.645Z,25.32
2018-07-21T07:47:28.492Z,25.09
2018-07-21T07:49:59.686Z,24.98
2018-07-21T07:52:30.540Z,24.98
2018-07-21T07:55:03.385Z,24.89
2018-07-21T07:57:35.000Z,24.82
2018-07-21T08:00:07.119Z,24.73
2018-07-21T08:02:38.501Z,24.43
2018-07-21T08:05:09.392Z,24.37
2018-07-21T08:07:40.446Z,24.57
2018-07-21T08:10:11.403Z,24.78
2018-07-21T08:12:44.697Z,25.04
2018-07-21T08:15:17.891Z,27.11
2018-07-21T08:17:50.069Z,27.44
2018-07-21T08:20:21.005Z,26.81
2018-07-21T08:22:54.076Z,27.13
2018-07-21T08:25:25.792Z,25.70
2018-07-21T08:27:56.849Z,25.66
2018-07-21T08:30:28.815Z,25.57
2018-07-21T08:33:00.433Z,25.91
2018-07-21T08:35:31.070Z,26.37
2018-07-21T08:38:04.430Z,26.58
2018-07-21T08:40:35.308Z,27.03
2018-07-21T08:43:06.110Z,27.01
2018-07-21T08:45:36.917Z,26.71
2018-07-21T08:48:10.625Z,27.05
2018-07-21T08:50:41.388Z,26.36
2018-07-21T08:53:12.129Z,25.82
2018-07-21T08:55:42.952Z,25.79
2018-07-21T08:58:13.771Z,25.64
2018-07-21T09:00:44.539Z,26.01
2018-07-21T09:03:15.830Z,26.61
2018-07-21T09:05:48.219Z,27.38
2018-07-21T09:08:19.421Z,27.80
2018-07-21T09:10:50.415Z,27.95
2018-07-21T09:13:21.434Z,28.12
2018-07-21T09:15:52.275Z,28.11
2018-07-21T09:18:23.158Z,28.59
2018-07-21T09:20:53.882Z,29.25
2018-07-21T09:23:25.137Z,29.10
2018-07-21T09:25:57.842Z,28.71
2018-07-21T09:28:28.630Z,28.45
2018-07-21T09:30:59.368Z,28.32
2018-07-21T09:33:31.112Z,27.34
2018-07-21T09:36:02.694Z,27.30
2018-07-21T09:38:33.617Z,27.46
2018-07-21T09:41:03.733Z,27.81
2018-07-21T09:43:35.562Z,28.45
2018-07-21T09:46:07.678Z,28.43
2018-07-21T09:48:38.280Z,28.42
2018-07-21T09:51:09.164Z,28.45
2018-07-21T09:53:39.976Z,29.04
2018-07-21T09:56:11.096Z,30.67
2018-07-21T09:58:41.858Z,31.71
2018-07-21T10:01:14.218Z,32.34
2018-07-21T10:03:45.117Z,32.72
2018-07-21T10:06:15.876Z,32.01
2018-07-21T10:08:46.882Z,30.81
2018-07-21T10:11:17.752Z,29.25
2018-07-21T10:13:48.678Z,28.66
2018-07-21T10:16:19.534Z,28.20
2018-07-21T10:18:50.660Z,28.05
2018-07-21T10:21:22.103Z,28.97
2018-07-21T10:23:53.056Z,29.56
2018-07-21T10:26:28.726Z,29.25
2018-07-21T10:29:04.507Z,28.93
2018-07-21T10:31:35.505Z,28.50
2018-07-21T10:34:07.422Z,28.32
2018-07-21T10:36:39.177Z,28.13
2018-07-21T10:39:14.126Z,28.17
2018-07-21T10:41:44.805Z,28.36
2018-07-21T10:44:15.629Z,28.43
2018-07-21T10:46:47.093Z,28.58
2018-07-21T10:49:19.513Z,28.65
2018-07-21T10:51:51.311Z,28.77
2018-07-21T10:54:22.109Z,29.15
2018-07-21T10:56:52.876Z,28.63
2018-07-21T10:59:23.800Z,28.86
2018-07-21T11:01:54.359Z,28.49
2018-07-21T11:04:27.749Z,28.60
2018-07-21T11:06:59.898Z,28.80
2018-07-21T11:09:32.000Z,28.70
2018-07-21T11:12:02.864Z,29.08
2018-07-21T11:14:34.604Z,28.92
2018-07-21T11:17:05.707Z,29.19
2018-07-21T11:19:37.474Z,29.72
2018-07-21T11:22:08.559Z,30.24
2018-07-21T11:24:39.874Z,30.61
2018-07-21T11:27:12.545Z,30.41
2018-07-21T11:29:43.258Z,29.57
2018-07-21T11:32:14.818Z,29.29
2018-07-21T11:34:46.644Z,28.98
2018-07-21T11:37:17.535Z,29.09
2018-07-21T11:39:48.566Z,29.43
2018-07-21T11:42:19.584Z,29.73
2018-07-21T11:44:51.477Z,29.23
2018-07-21T11:47:22.127Z,29.24
2018-07-21T11:49:53.035Z,29.38
2018-07-21T11:52:23.796Z,29.92
2018-07-21T11:54:54.713Z,29.23
2018-07-21T11:57:26.762Z,29.08
2018-07-21T11:59:57.515Z,29.18
2018-07-21T12:02:30.818Z,29.67
2018-07-21T12:05:05.258Z,29.75
2018-07-21T12:07:36.509Z,30.14
2018-07-21T12:10:08.288Z,29.88
2018-07-21T12:12:41.259Z,29.60
2018-07-21T12:15:20.152Z,29.97
2018-07-21T12:17:52.236Z,29.57
2018-07-21T12:20:25.756Z,29.48
2018-07-21T12:22:59.496Z,29.42
2018-07-21T12:25:31.655Z,29.48
2018-07-21T12:28:05.239Z,29.68
2018-07-21T12:30:36.866Z,29.72
2018-07-21T12:33:09.512Z,29.70
2018-07-21T12:35:41.601Z,29.56
2018-07-21T12:38:15.764Z,29.61
2018-07-21T12:40:46.717Z,29.71
2018-07-21T12:43:19.499Z,29.51
2018-07-21T12:45:58.499Z,29.49
2018-07-21T12:48:31.898Z,29.57
2018-07-21T12:51:03.569Z,29.45
2018-07-21T12:53:35.661Z,29.52
2018-07-21T12:56:07.446Z,29.37
2018-07-21T12:58:40.654Z,29.61
2018-07-21T13:01:12.075Z,29.48
2018-07-21T13:03:42.801Z,29.60
2018-07-21T13:06:13.681Z,30.08
2018-07-21T13:08:44.713Z,29.91
2018-07-21T13:11:15.728Z,29.72
2018-07-21T13:13:47.708Z,29.56
2018-07-21T13:16:18.131Z,29.96
2018-07-21T13:18:49.010Z,29.92
2018-07-21T13:21:20.355Z,29.88
2018-07-21T13:23:51.195Z,30.00
2018-07-21T13:26:22.099Z,30.04
2018-07-21T13:28:53.102Z,30.02
2018-07-21T13:31:23.914Z,29.84
2018-07-21T13:33:55.842Z,29.99
2018-07-21T13:36:26.752Z,30.19
2018-07-21T13:38:57.849Z,29.92
2018-07-21T13:41:30.976Z,30.25
2018-07-21T13:44:03.643Z,30.26
2018-07-21T13:46:36.162Z,30.09
2018-07-21T13:49:10.277Z,30.23
2018-07-21T13:51:42.574Z,30.25
2018-07-21T13:54:14.491Z,30.06
2018-07-21T13:56:51.308Z,29.67
2018-07-21T13:59:23.778Z,29.86
2018-07-21T14:01:56.483Z,29.67
2018-07-21T14:04:28.695Z,29.52
2018-07-21T14:06:59.614Z,29.51
2018-07-21T14:09:30.138Z,29.38
2018-07-21T14:12:00.991Z,29.60
2018-07-21T14:14:31.983Z,29.75
2018-07-21T14:17:02.974Z,30.11
2018-07-21T14:19:33.648Z,30.12
2018-07-21T14:22:06.834Z,30.94
2018-07-21T14:24:38.632Z,30.75
2018-07-21T14:27:12.706Z,30.55
2018-07-21T14:29:44.179Z,30.40
2018-07-21T14:32:15.343Z,30.52
2018-07-21T14:34:47.637Z,30.38
2018-07-21T14:37:19.208Z,30.05
2018-07-21T14:39:50.358Z,30.19
2018-07-21T14:42:20.523Z,30.30
2018-07-21T14:44:51.320Z,30.45
2018-07-21T14:47:22.743Z,30.20
2018-07-21T14:49:53.381Z,30.18
2018-07-21T14:52:24.621Z,30.41
2018-07-21T14:54:55.590Z,30.36
2018-07-21T14:57:27.566Z,30.32
2018-07-21T14:59:58.153Z,30.10
2018-07-21T15:02:28.980Z,30.15
2018-07-21T15:05:01.274Z,29.87
2018-07-21T15:07:34.349Z,29.89
2018-07-21T15:10:05.223Z,30.08
2018-07-21T15:12:36.841Z,29.90
2018-07-21T15:15:09.290Z,29.87
2018-07-21T15:17:40.321Z,29.78
2018-07-21T15:20:11.149Z,29.95
2018-07-21T15:22:41.996Z,30.30
2018-07-21T15:25:13.475Z,30.02
2018-07-21T15:27:45.136Z,29.75
2018-07-21T15:30:17.600Z,29.95
2018-07-21T15:32:51.356Z,30.26
2018-07-21T15:35:22.709Z,30.45
2018-07-21T15:37:55.645Z,30.25
2018-07-21T15:40:28.443Z,30.12
2018-07-21T15:42:59.824Z,29.80
2018-07-21T15:45:31.619Z,30.25
2018-07-21T15:48:03.701Z,30.41
2018-07-21T15:50:34.648Z,30.04
2018-07-21T15:53:05.306Z,29.90
2018-07-21T15:55:36.433Z,29.77
2018-07-21T15:58:07.446Z,29.76
2018-07-21T16:00:38.844Z,29.68
2018-07-21T16:03:09.669Z,29.72
2018-07-21T16:05:40.549Z,29.74
2018-07-21T16:08:11.985Z,29.68
2018-07-21T16:10:42.779Z,29.59
2018-07-21T16:13:14.265Z,29.80
2018-07-21T16:15:45.669Z,29.83
2018-07-21T16:18:16.744Z,29.88
2018-07-21T16:20:47.501Z,29.83
2018-07-21T16:23:20.793Z,29.85
2018-07-21T16:25:52.151Z,29.78
2018-07-21T16:28:23.079Z,29.62
2018-07-21T16:30:54.121Z,29.68
2018-07-21T16:33:24.954Z,29.90
2018-07-21T16:35:55.795Z,29.86
2018-07-21T16:38:28.199Z,29.84
2018-07-21T16:41:00.044Z,29.63
2018-07-21T16:43:32.128Z,29.87
2018-07-21T16:46:02.797Z,29.72
2018-07-21T16:48:33.592Z,29.58
2018-07-21T16:51:04.956Z,29.75
2018-07-21T16:53:36.089Z,29.45
2018-07-21T16:56:07.095Z,29.54
2018-07-21T16:58:38.254Z,29.52
2018-07-21T17:01:10.171Z,29.54
2018-07-21T17:03:41.065Z,29.27
2018-07-21T17:06:14.666Z,29.23
2018-07-21T17:08:45.521Z,29.12
2018-07-21T17:11:16.168Z,29.08
2018-07-21T17:13:46.882Z,29.07
2018-07-21T17:16:18.181Z,29.01
2018-07-21T17:18:50.901Z,28.92
2018-07-21T17:21:22.607Z,28.95
2018-07-21T17:23:53.837Z,28.96
2018-07-21T17:26:24.571Z,28.79
2018-07-21T17:28:55.408Z,28.81
2018-07-21T17:31:26.790Z,28.75
2018-07-21T17:33:57.581Z,28.65
2018-07-21T17:36:30.382Z,28.66
2018-07-21T17:39:01.804Z,28.51
2018-07-21T17:41:32.602Z,28.47
2018-07-21T17:44:03.415Z,28.36
2018-07-21T17:46:34.704Z,28.29
2018-07-21T17:49:06.579Z,28.21
2018-07-21T17:51:37.405Z,28.15
2018-07-21T17:54:08.923Z,28.13
2018-07-21T17:56:40.772Z,28.07
2018-07-21T17:59:11.709Z,28.01
2018-07-21T18:01:43.003Z,27.91
2018-07-21T18:04:13.672Z,27.83
2018-07-21T18:06:43.804Z,27.78
2018-07-21T18:09:14.868Z,27.69
2018-07-21T18:11:44.993Z,27.62
2018-07-21T18:14:16.540Z,27.55
2018-07-21T18:16:48.907Z,27.46
2018-07-21T18:19:20.386Z,27.44
2018-07-21T18:21:51.138Z,27.31
2018-07-21T18:24:22.980Z,27.11
2018-07-21T18:26:53.674Z,26.91
2018-07-21T18:29:24.499Z,26.70
2018-07-21T18:31:55.889Z,26.51
2018-07-21T18:34:27.361Z,26.30
2018-07-21T18:36:58.489Z,26.15
2018-07-21T18:39:28.841Z,25.99
2018-07-21T18:41:59.594Z,25.83
2018-07-21T18:44:30.465Z,25.59
2018-07-21T18:47:01.800Z,25.45
2018-07-21T18:49:32.539Z,25.23
2018-07-21T18:52:04.134Z,25.13
2018-07-21T18:54:35.052Z,25.03
2018-07-21T18:57:05.696Z,24.91
2018-07-21T18:59:36.517Z,24.85
2018-07-21T19:02:07.559Z,24.72
2018-07-21T19:04:38.859Z,24.61
2018-07-21T19:07:10.656Z,24.52
2018-07-21T19:09:43.415Z,24.43
2018-07-21T19:12:19.748Z,24.39
2018-07-21T19:14:52.201Z,24.34
2018-07-21T19:17:23.628Z,24.29
2018-07-21T19:20:01.706Z,24.22
2018-07-21T19:22:33.949Z,24.15
2018-07-21T19:25:10.738Z,24.06
2018-07-21T19:27:42.003Z,23.97
2018-07-21T19:30:13.296Z,23.95
2018-07-21T19:32:49.418Z,23.93
2018-07-21T19:35:21.653Z,23.88
2018-07-21T19:37:53.219Z,23.79
2018-07-21T19:40:26.563Z,23.76
2018-07-21T19:42:57.978Z,23.73
2018-07-21T19:45:29.424Z,23.85
2018-07-21T19:48:02.878Z,24.02
2018-07-21T19:50:35.497Z,23.93
2018-07-21T19:53:07.201Z,23.86
2018-07-21T19:55:38.675Z,23.80
2018-07-21T19:58:10.445Z,23.75
2018-07-21T20:00:42.571Z,23.80
2018-07-21T20:03:14.922Z,23.73
2018-07-21T20:05:47.430Z,23.62
2018-07-21T20:08:19.266Z,23.50
2018-07-21T20:10:50.878Z,23.39
2018-07-21T20:13:22.400Z,23.31
2018-07-21T20:15:54.111Z,23.18
2018-07-21T20:18:25.551Z,22.93
2018-07-21T20:20:58.792Z,22.85
2018-07-21T20:23:30.160Z,22.75
2018-07-21T20:26:02.525Z,22.60
2018-07-21T20:28:34.281Z,22.64
2018-07-21T20:31:06.118Z,22.56
2018-07-21T20:33:37.649Z,22.40
2018-07-21T20:36:10.270Z,22.28
2018-07-21T20:38:42.306Z,22.23
2018-07-21T20:41:14.878Z,22.20
2018-07-21T20:43:46.577Z,22.17
2018-07-21T20:46:18.845Z,22.12
2018-07-21T20:48:50.860Z,22.06
2018-07-21T20:51:24.873Z,21.97
2018-07-21T20:53:58.241Z,21.85
2018-07-21T20:56:30.875Z,21.77
2018-07-21T20:59:02.087Z,21.69
2018-07-21T21:01:33.642Z,21.63
2018-07-21T21:04:05.252Z,21.59
2018-07-21T21:06:40.021Z,21.57
2018-07-21T21:09:12.744Z,21.55
2018-07-21T21:11:43.920Z,21.53
2018-07-21T21:14:14.721Z,21.50
2018-07-21T21:16:45.517Z,21.52
2018-07-21T21:19:16.573Z,21.46
2018-07-21T21:21:49.265Z,21.48
2018-07-21T21:24:21.155Z,21.37
2018-07-21T21:26:53.608Z,21.34
2018-07-21T21:29:24.505Z,21.28
2018-07-21T21:31:55.702Z,21.27
2018-07-21T21:34:26.340Z,21.20
2018-07-21T21:36:57.137Z,21.05
2018-07-21T21:39:28.798Z,21.03
2018-07-21T21:42:00.513Z,20.97
2018-07-21T21:44:32.700Z,21.07
2018-07-21T21:47:03.669Z,21.06
2018-07-21T21:49:34.766Z,21.00
2018-07-21T21:52:06.292Z,20.98
2018-07-21T21:54:38.321Z,20.98
2018-07-21T21:57:11.048Z,20.95
2018-07-21T21:59:45.033Z,20.89
2018-07-21T22:02:17.614Z,20.86
2018-07-21T22:04:48.616Z,20.79
2018-07-21T22:07:19.760Z,20.74
2018-07-21T22:09:51.070Z,20.68
2018-07-21T22:12:23.221Z,20.59
2018-07-21T22:14:54.581Z,20.52
2018-07-21T22:17:25.806Z,20.51
2018-07-21T22:19:56.729Z,20.49
2018-07-21T22:22:27.618Z,20.46
2018-07-21T22:24:58.575Z,20.46
2018-07-21T22:27:29.502Z,20.41
2018-07-21T22:30:00.765Z,20.40
2018-07-21T22:32:33.331Z,20.40
2018-07-21T22:35:04.454Z,20.32
2018-07-21T22:37:35.315Z,20.25
2018-07-21T22:40:05.971Z,20.20
2018-07-21T22:42:36.633Z,20.21
2018-07-21T22:45:07.476Z,20.17
2018-07-21T22:47:38.044Z,20.28
2018-07-21T22:50:09.937Z,20.24
2018-07-21T22:52:40.536Z,20.19
2018-07-21T22:55:11.049Z,20.12
2018-07-21T22:57:41.861Z,20.15
2018-07-21T23:00:13.609Z,20.11
2018-07-21T23:02:44.252Z,20.18
2018-07-21T23:05:14.813Z,20.17
2018-07-21T23:07:45.659Z,20.18
2018-07-21T23:10:17.372Z,20.17
2018-07-21T23:12:48.028Z,20.17
2018-07-21T23:15:18.771Z,20.28
2018-07-21T23:17:49.449Z,20.36
2018-07-21T23:20:19.587Z,20.31
2018-07-21T23:22:50.190Z,20.31
2018-07-21T23:25:20.882Z,20.32
2018-07-21T23:27:51.697Z,20.34
2018-07-21T23:30:23.098Z,20.37
2018-07-21T23:32:53.626Z,20.24
2018-07-21T23:35:24.164Z,20.08
2018-07-21T23:37:54.649Z,19.98
2018-07-21T23:40:25.189Z,19.86
2018-07-21T23:42:56.660Z,19.83
2018-07-21T23:45:27.542Z,19.76
2018-07-21T23:47:59.252Z,19.71
2018-07-21T23:50:30.086Z,19.76
2018-07-21T23:53:00.843Z,19.68
2018-07-21T23:55:31.511Z,19.71
2018-07-21T23:58:01.940Z,19.70
